sensor_id;sensor_type;location;lat;lon;timestamp;temperature;humidity
46283;DHT22;32017;43.700;11.820;2023-08-01T00:00:20;18.90;99.90
46283;DHT22;32017;43.700;11.820;2023-08-01T00:02:40;18.90;99.90
46283;DHT22;32017;43.700;11.820;2023-08-01T00:05:01;18.90;99.90
46283;DHT22;32017;43.700;11.820;2023-08-01T00:07:22;18.80;99.90
46283;DHT22;32017;43.700;11.820;2023-08-01T00:09:41;18.80;99.90
46283;DHT22;32017;43.700;11.820;2023-08-01T00:12:01;18.90;99.90
46283;DHT22;32017;43.700;11.820;2023-08-01T00:14:21;18.90;99.90
46283;DHT22;32017;43.700;11.820;2023-08-01T00:16:43;18.90;99.90
46283;DHT22;32017;43.700;11.820;2023-08-01T00:19:04;18.80;99.90
46283;DHT22;32017;43.700;11.820;2023-08-01T00:21:23;18.90;99.90
46283;DHT22;32017;43.700;11.820;2023-08-01T00:23:44;18.60;99.90
46283;DHT22;32017;43.700;11.820;2023-08-01T00:26:04;18.50;99.90
46283;DHT22;32017;43.700;11.820;2023-08-01T00:28:23;18.40;99.90
46283;DHT22;32017;43.700;11.820;2023-08-01T00:30:43;18.40;99.90
46283;DHT22;32017;43.700;11.820;2023-08-01T00:33:04;18.50;99.90
46283;DHT22;32017;43.700;11.820;2023-08-01T00:35:24;18.60;99.90
46283;DHT22;32017;43.700;11.820;2023-08-01T00:37:44;18.70;99.90
46283;DHT22;32017;43.700;11.820;2023-08-01T00:40:05;18.70;99.90
46283;DHT22;32017;43.700;11.820;2023-08-01T00:42:25;18.80;99.90
46283;DHT22;32017;43.700;11.820;2023-08-01T00:44:44;18.80;99.90
46283;DHT22;32017;43.700;11.820;2023-08-01T00:47:06;18.80;99.90
46283;DHT22;32017;43.700;11.820;2023-08-01T00:49:27;18.70;99.90
46283;DHT22;32017;43.700;11.820;2023-08-01T00:51:47;18.60;99.90
46283;DHT22;32017;43.700;11.820;2023-08-01T00:54:08;18.60;99.90
46283;DHT22;32017;43.700;11.820;2023-08-01T00:56:28;18.50;99.90
46283;DHT22;32017;43.700;11.820;2023-08-01T00:58:47;18.40;99.90
46283;DHT22;32017;43.700;11.820;2023-08-01T01:01:07;18.20;99.90
46283;DHT22;32017;43.700;11.820;2023-08-01T01:03:27;18.30;99.90
46283;DHT22;32017;43.700;11.820;2023-08-01T01:06:41;18.10;99.90
46283;DHT22;32017;43.700;11.820;2023-08-01T01:08:43;18.00;99.90
46283;DHT22;32017;43.700;11.820;2023-08-01T01:11:03;17.90;99.90
46283;DHT22;32017;43.700;11.820;2023-08-01T01:13:24;17.90;99.90
46283;DHT22;32017;43.700;11.820;2023-08-01T01:15:44;18.00;99.90
46283;DHT22;32017;43.700;11.820;2023-08-01T01:18:03;18.10;99.90
46283;DHT22;32017;43.700;11.820;2023-08-01T01:20:24;18.00;99.90
46283;DHT22;32017;43.700;11.820;2023-08-01T01:22:44;18.00;99.90
46283;DHT22;32017;43.700;11.820;2023-08-01T01:25:04;18.00;99.90
46283;DHT22;32017;43.700;11.820;2023-08-01T01:27:25;17.90;99.90
46283;DHT22;32017;43.700;11.820;2023-08-01T01:29:47;17.90;99.90
46283;DHT22;32017;43.700;11.820;2023-08-01T01:32:07;17.80;99.90
46283;DHT22;32017;43.700;11.820;2023-08-01T01:34:28;17.80;99.90
46283;DHT22;32017;43.700;11.820;2023-08-01T01:36:48;17.80;99.90
46283;DHT22;32017;43.700;11.820;2023-08-01T01:39:08;17.70;99.90
46283;DHT22;32017;43.700;11.820;2023-08-01T01:41:28;17.70;99.90
46283;DHT22;32017;43.700;11.820;2023-08-01T01:43:48;17.60;99.90
46283;DHT22;32017;43.700;11.820;2023-08-01T01:46:08;17.50;99.90
46283;DHT22;32017;43.700;11.820;2023-08-01T01:48:28;17.50;99.90
46283;DHT22;32017;43.700;11.820;2023-08-01T01:50:48;17.50;99.90
46283;DHT22;32017;43.700;11.820;2023-08-01T01:53:07;17.50;99.90
46283;DHT22;32017;43.700;11.820;2023-08-01T01:55:27;17.40;99.90
46283;DHT22;32017;43.700;11.820;2023-08-01T01:57:47;17.30;99.90
46283;DHT22;32017;43.700;11.820;2023-08-01T02:00:08;17.10;99.90
46283;DHT22;32017;43.700;11.820;2023-08-01T02:02:31;17.10;99.90
46283;DHT22;32017;43.700;11.820;2023-08-01T02:04:51;17.10;99.90
46283;DHT22;32017;43.700;11.820;2023-08-01T02:07:11;17.20;99.90
46283;DHT22;32017;43.700;11.820;2023-08-01T02:09:32;17.20;99.90
46283;DHT22;32017;43.700;11.820;2023-08-01T02:11:52;17.10;99.90
46283;DHT22;32017;43.700;11.820;2023-08-01T02:14:13;17.10;99.90
46283;DHT22;32017;43.700;11.820;2023-08-01T02:16:33;17.20;99.90
46283;DHT22;32017;43.700;11.820;2023-08-01T02:18:53;17.20;99.90
46283;DHT22;32017;43.700;11.820;2023-08-01T02:21:13;17.20;99.90
46283;DHT22;32017;43.700;11.820;2023-08-01T02:23:33;17.10;99.90
46283;DHT22;32017;43.700;11.820;2023-08-01T02:25:56;17.00;99.90
46283;DHT22;32017;43.700;11.820;2023-08-01T02:28:16;17.10;99.90
46283;DHT22;32017;43.700;11.820;2023-08-01T02:30:36;17.10;99.90
46283;DHT22;32017;43.700;11.820;2023-08-01T02:32:56;17.10;99.90
46283;DHT22;32017;43.700;11.820;2023-08-01T02:35:17;17.10;99.90
46283;DHT22;32017;43.700;11.820;2023-08-01T02:37:36;17.10;99.90
46283;DHT22;32017;43.700;11.820;2023-08-01T02:39:56;17.00;99.90
46283;DHT22;32017;43.700;11.820;2023-08-01T02:42:16;17.00;99.90
46283;DHT22;32017;43.700;11.820;2023-08-01T02:44:36;16.90;99.90
46283;DHT22;32017;43.700;11.820;2023-08-01T02:46:55;16.90;99.90
46283;DHT22;32017;43.700;11.820;2023-08-01T02:49:15;16.80;99.90
46283;DHT22;32017;43.700;11.820;2023-08-01T02:51:35;16.70;99.90
46283;DHT22;32017;43.700;11.820;2023-08-01T02:53:55;16.80;99.90
46283;DHT22;32017;43.700;11.820;2023-08-01T02:56:14;16.70;99.90
46283;DHT22;32017;43.700;11.820;2023-08-01T02:58:34;16.50;99.90
46283;DHT22;32017;43.700;11.820;2023-08-01T03:00:54;16.40;99.90
46283;DHT22;32017;43.700;11.820;2023-08-01T03:03:14;16.50;99.90
46283;DHT22;32017;43.700;11.820;2023-08-01T03:05:37;16.50;99.90
46283;DHT22;32017;43.700;11.820;2023-08-01T03:07:58;16.50;99.90
46283;DHT22;32017;43.700;11.820;2023-08-01T03:10:18;16.50;99.90
46283;DHT22;32017;43.700;11.820;2023-08-01T03:12:55;16.40;99.90
46283;DHT22;32017;43.700;11.820;2023-08-01T03:15:16;16.40;99.90
46283;DHT22;32017;43.700;11.820;2023-08-01T03:17:36;16.30;99.90
46283;DHT22;32017;43.700;11.820;2023-08-01T03:19:55;16.30;99.90
46283;DHT22;32017;43.700;11.820;2023-08-01T03:22:16;16.30;99.90
46283;DHT22;32017;43.700;11.820;2023-08-01T03:24:36;16.20;99.90
46283;DHT22;32017;43.700;11.820;2023-08-01T03:26:56;16.20;99.90
46283;DHT22;32017;43.700;11.820;2023-08-01T03:29:16;16.20;99.90
46283;DHT22;32017;43.700;11.820;2023-08-01T03:31:35;16.10;99.90
46283;DHT22;32017;43.700;11.820;2023-08-01T03:33:55;16.10;99.90
46283;DHT22;32017;43.700;11.820;2023-08-01T03:36:17;16.10;99.90
46283;DHT22;32017;43.700;11.820;2023-08-01T03:38:37;16.10;99.90
46283;DHT22;32017;43.700;11.820;2023-08-01T03:40:58;16.10;99.90
46283;DHT22;32017;43.700;11.820;2023-08-01T03:43:18;16.20;99.90
46283;DHT22;32017;43.700;11.820;2023-08-01T03:45:43;16.20;99.90
46283;DHT22;32017;43.700;11.820;2023-08-01T03:48:02;16.10;99.90
46283;DHT22;32017;43.700;11.820;2023-08-01T03:50:23;16.10;99.90
46283;DHT22;32017;43.700;11.820;2023-08-01T03:52:42;16.10;99.90
46283;DHT22;32017;43.700;11.820;2023-08-01T03:55:02;16.10;99.90
46283;DHT22;32017;43.700;11.820;2023-08-01T03:57:22;16.00;99.90
46283;DHT22;32017;43.700;11.820;2023-08-01T03:59:42;15.90;99.90
46283;DHT22;32017;43.700;11.820;2023-08-01T04:02:02;15.90;99.90
46283;DHT22;32017;43.700;11.820;2023-08-01T04:04:22;15.70;99.90
46283;DHT22;32017;43.700;11.820;2023-08-01T04:06:42;15.70;99.90
46283;DHT22;32017;43.700;11.820;2023-08-01T04:09:03;15.70;99.90
46283;DHT22;32017;43.700;11.820;2023-08-01T04:11:23;15.70;99.90
46283;DHT22;32017;43.700;11.820;2023-08-01T04:13:43;15.80;99.90
46283;DHT22;32017;43.700;11.820;2023-08-01T04:16:03;15.80;99.90
46283;DHT22;32017;43.700;11.820;2023-08-01T04:18:23;15.80;99.90
46283;DHT22;32017;43.700;11.820;2023-08-01T04:20:43;15.70;99.90
46283;DHT22;32017;43.700;11.820;2023-08-01T04:23:03;15.70;99.90
46283;DHT22;32017;43.700;11.820;2023-08-01T04:25:24;15.70;99.90
46283;DHT22;32017;43.700;11.820;2023-08-01T04:27:44;15.90;99.90
46283;DHT22;32017;43.700;11.820;2023-08-01T04:30:04;16.00;99.90
46283;DHT22;32017;43.700;11.820;2023-08-01T04:32:25;16.00;99.90
46283;DHT22;32017;43.700;11.820;2023-08-01T04:34:45;15.90;99.90
46283;DHT22;32017;43.700;11.820;2023-08-01T04:37:05;15.90;99.90
46283;DHT22;32017;43.700;11.820;2023-08-01T04:39:26;15.80;99.90
46283;DHT22;32017;43.700;11.820;2023-08-01T04:41:46;15.80;99.90
46283;DHT22;32017;43.700;11.820;2023-08-01T04:44:06;15.70;99.90
46283;DHT22;32017;43.700;11.820;2023-08-01T04:46:26;15.60;99.90
46283;DHT22;32017;43.700;11.820;2023-08-01T04:48:46;15.60;99.90
46283;DHT22;32017;43.700;11.820;2023-08-01T04:51:06;15.70;99.90
46283;DHT22;32017;43.700;11.820;2023-08-01T04:53:25;15.60;99.90
46283;DHT22;32017;43.700;11.820;2023-08-01T04:55:45;15.60;99.90
46283;DHT22;32017;43.700;11.820;2023-08-01T04:58:04;15.50;99.90
46283;DHT22;32017;43.700;11.820;2023-08-01T05:00:24;15.60;99.90
46283;DHT22;32017;43.700;11.820;2023-08-01T05:02:44;15.60;99.90
46283;DHT22;32017;43.700;11.820;2023-08-01T05:05:05;15.50;99.90
46283;DHT22;32017;43.700;11.820;2023-08-01T05:07:25;15.50;99.90
46283;DHT22;32017;43.700;11.820;2023-08-01T05:09:45;15.60;99.90
46283;DHT22;32017;43.700;11.820;2023-08-01T05:12:06;15.80;99.90
46283;DHT22;32017;43.700;11.820;2023-08-01T05:14:26;15.70;99.90
46283;DHT22;32017;43.700;11.820;2023-08-01T05:16:46;15.60;99.90
46283;DHT22;32017;43.700;11.820;2023-08-01T05:19:06;15.80;99.90
46283;DHT22;32017;43.700;11.820;2023-08-01T05:21:26;15.90;99.90
46283;DHT22;32017;43.700;11.820;2023-08-01T05:23:46;16.00;99.90
46283;DHT22;32017;43.700;11.820;2023-08-01T05:26:06;16.20;99.90
46283;DHT22;32017;43.700;11.820;2023-08-01T05:28:26;16.50;99.90
46283;DHT22;32017;43.700;11.820;2023-08-01T05:30:47;16.70;99.90
46283;DHT22;32017;43.700;11.820;2023-08-01T05:33:07;16.80;99.90
46283;DHT22;32017;43.700;11.820;2023-08-01T05:35:27;17.00;99.90
46283;DHT22;32017;43.700;11.820;2023-08-01T05:37:46;17.20;99.90
46283;DHT22;32017;43.700;11.820;2023-08-01T05:40:07;17.30;99.90
46283;DHT22;32017;43.700;11.820;2023-08-01T05:42:27;17.40;99.90
46283;DHT22;32017;43.700;11.820;2023-08-01T05:44:47;17.50;99.90
46283;DHT22;32017;43.700;11.820;2023-08-01T05:47:07;17.60;99.90
46283;DHT22;32017;43.700;11.820;2023-08-01T05:49:27;17.70;99.90
46283;DHT22;32017;43.700;11.820;2023-08-01T05:51:49;17.90;99.90
46283;DHT22;32017;43.700;11.820;2023-08-01T05:54:09;18.00;99.90
46283;DHT22;32017;43.700;11.820;2023-08-01T05:56:28;18.20;99.90
46283;DHT22;32017;43.700;11.820;2023-08-01T05:58:49;18.20;99.90
46283;DHT22;32017;43.700;11.820;2023-08-01T06:01:11;18.30;99.90
46283;DHT22;32017;43.700;11.820;2023-08-01T06:03:31;18.50;99.90
46283;DHT22;32017;43.700;11.820;2023-08-01T06:05:52;18.60;99.90
46283;DHT22;32017;43.700;11.820;2023-08-01T06:08:12;18.70;99.90
46283;DHT22;32017;43.700;11.820;2023-08-01T06:10:33;18.90;99.90
46283;DHT22;32017;43.700;11.820;2023-08-01T06:12:53;19.10;99.90
46283;DHT22;32017;43.700;11.820;2023-08-01T06:15:13;19.30;99.90
46283;DHT22;32017;43.700;11.820;2023-08-01T06:17:33;19.60;99.90
46283;DHT22;32017;43.700;11.820;2023-08-01T06:19:53;19.90;99.90
46283;DHT22;32017;43.700;11.820;2023-08-01T06:22:14;20.20;99.90
46283;DHT22;32017;43.700;11.820;2023-08-01T06:24:34;20.30;99.90
46283;DHT22;32017;43.700;11.820;2023-08-01T06:26:54;20.20;99.90
46283;DHT22;32017;43.700;11.820;2023-08-01T06:29:15;20.40;99.90
46283;DHT22;32017;43.700;11.820;2023-08-01T06:31:34;20.80;99.90
46283;DHT22;32017;43.700;11.820;2023-08-01T06:33:54;20.90;99.90
46283;DHT22;32017;43.700;11.820;2023-08-01T06:36:14;21.20;99.90
46283;DHT22;32017;43.700;11.820;2023-08-01T06:38:36;21.40;99.90
46283;DHT22;32017;43.700;11.820;2023-08-01T06:40:56;21.60;99.90
46283;DHT22;32017;43.700;11.820;2023-08-01T06:43:16;21.90;99.90
46283;DHT22;32017;43.700;11.820;2023-08-01T06:45:36;22.00;99.90
46283;DHT22;32017;43.700;11.820;2023-08-01T06:47:56;22.10;99.90
46283;DHT22;32017;43.700;11.820;2023-08-01T06:50:16;22.20;99.90
46283;DHT22;32017;43.700;11.820;2023-08-01T06:52:36;22.50;99.90
46283;DHT22;32017;43.700;11.820;2023-08-01T06:54:56;22.70;99.90
46283;DHT22;32017;43.700;11.820;2023-08-01T06:57:16;23.00;99.90
46283;DHT22;32017;43.700;11.820;2023-08-01T06:59:36;23.00;99.90
46283;DHT22;32017;43.700;11.820;2023-08-01T07:01:56;22.80;99.90
46283;DHT22;32017;43.700;11.820;2023-08-01T07:04:16;22.60;99.90
46283;DHT22;32017;43.700;11.820;2023-08-01T07:06:36;22.60;99.90
46283;DHT22;32017;43.700;11.820;2023-08-01T07:08:56;22.70;99.90
46283;DHT22;32017;43.700;11.820;2023-08-01T07:11:17;23.30;99.90
46283;DHT22;32017;43.700;11.820;2023-08-01T07:13:38;23.60;99.90
46283;DHT22;32017;43.700;11.820;2023-08-01T07:15:59;23.70;99.90
46283;DHT22;32017;43.700;11.820;2023-08-01T07:18:19;23.90;99.90
46283;DHT22;32017;43.700;11.820;2023-08-01T07:20:39;23.90;99.90
46283;DHT22;32017;43.700;11.820;2023-08-01T07:22:58;24.10;99.90
46283;DHT22;32017;43.700;11.820;2023-08-01T07:25:18;24.40;99.70
46283;DHT22;32017;43.700;11.820;2023-08-01T07:27:39;24.50;98.40
46283;DHT22;32017;43.700;11.820;2023-08-01T07:29:59;24.50;99.50
46283;DHT22;32017;43.700;11.820;2023-08-01T07:32:19;24.90;99.20
46283;DHT22;32017;43.700;11.820;2023-08-01T07:34:39;25.30;98.50
46283;DHT22;32017;43.700;11.820;2023-08-01T07:36:59;25.70;97.30
46283;DHT22;32017;43.700;11.820;2023-08-01T07:39:18;25.30;98.50
46283;DHT22;32017;43.700;11.820;2023-08-01T07:41:38;25.40;98.90
46283;DHT22;32017;43.700;11.820;2023-08-01T07:43:58;25.80;99.10
46283;DHT22;32017;43.700;11.820;2023-08-01T07:46:18;26.10;97.60
46283;DHT22;32017;43.700;11.820;2023-08-01T07:48:38;25.90;97.70
46283;DHT22;32017;43.700;11.820;2023-08-01T07:50:58;25.90;98.30
46283;DHT22;32017;43.700;11.820;2023-08-01T07:53:17;26.20;97.70
46283;DHT22;32017;43.700;11.820;2023-08-01T07:55:38;25.80;97.80
46283;DHT22;32017;43.700;11.820;2023-08-01T07:57:58;25.80;97.40
46283;DHT22;32017;43.700;11.820;2023-08-01T08:00:18;26.20;97.70
46283;DHT22;32017;43.700;11.820;2023-08-01T08:02:38;26.70;96.70
46283;DHT22;32017;43.700;11.820;2023-08-01T08:04:58;27.00;96.80
46283;DHT22;32017;43.700;11.820;2023-08-01T08:07:18;26.90;96.50
46283;DHT22;32017;43.700;11.820;2023-08-01T08:09:38;26.60;96.50
46283;DHT22;32017;43.700;11.820;2023-08-01T08:11:58;26.30;97.30
46283;DHT22;32017;43.700;11.820;2023-08-01T08:14:18;26.10;97.20
46283;DHT22;32017;43.700;11.820;2023-08-01T08:16:40;26.40;97.40
46283;DHT22;32017;43.700;11.820;2023-08-01T08:19:00;27.00;96.10
46283;DHT22;32017;43.700;11.820;2023-08-01T08:21:20;27.40;95.80
46283;DHT22;32017;43.700;11.820;2023-08-01T08:23:40;27.70;95.30
46283;DHT22;32017;43.700;11.820;2023-08-01T08:26:00;27.30;95.00
46283;DHT22;32017;43.700;11.820;2023-08-01T08:28:31;27.20;95.90
46283;DHT22;32017;43.700;11.820;2023-08-01T08:30:52;27.30;95.70
46283;DHT22;32017;43.700;11.820;2023-08-01T08:33:20;27.70;96.20
46283;DHT22;32017;43.700;11.820;2023-08-01T08:35:41;27.40;95.00
46283;DHT22;32017;43.700;11.820;2023-08-01T08:38:02;27.30;94.30
46283;DHT22;32017;43.700;11.820;2023-08-01T08:40:23;26.80;95.90
46283;DHT22;32017;43.700;11.820;2023-08-01T08:42:45;26.90;95.10
46283;DHT22;32017;43.700;11.820;2023-08-01T08:45:06;26.50;95.90
46283;DHT22;32017;43.700;11.820;2023-08-01T08:47:28;26.00;95.60
46283;DHT22;32017;43.700;11.820;2023-08-01T08:49:49;25.70;96.40
46283;DHT22;32017;43.700;11.820;2023-08-01T08:52:09;25.70;96.70
46283;DHT22;32017;43.700;11.820;2023-08-01T08:54:30;25.80;96.70
46283;DHT22;32017;43.700;11.820;2023-08-01T08:56:51;25.60;96.10
46283;DHT22;32017;43.700;11.820;2023-08-01T08:59:12;25.50;96.60
46283;DHT22;32017;43.700;11.820;2023-08-01T09:01:32;25.40;96.50
46283;DHT22;32017;43.700;11.820;2023-08-01T09:03:52;25.30;96.70
46283;DHT22;32017;43.700;11.820;2023-08-01T09:06:17;25.30;96.80
46283;DHT22;32017;43.700;11.820;2023-08-01T09:08:39;25.60;97.40
46283;DHT22;32017;43.700;11.820;2023-08-01T09:11:00;25.40;97.00
46283;DHT22;32017;43.700;11.820;2023-08-01T09:13:20;25.20;96.80
46283;DHT22;32017;43.700;11.820;2023-08-01T09:15:41;25.30;96.50
46283;DHT22;32017;43.700;11.820;2023-08-01T09:18:06;25.10;97.00
46283;DHT22;32017;43.700;11.820;2023-08-01T09:20:29;24.80;97.00
46283;DHT22;32017;43.700;11.820;2023-08-01T09:22:49;25.00;97.40
46283;DHT22;32017;43.700;11.820;2023-08-01T09:25:10;25.00;97.90
46283;DHT22;32017;43.700;11.820;2023-08-01T09:27:33;25.10;97.60
46283;DHT22;32017;43.700;11.820;2023-08-01T09:29:53;25.30;97.50
46283;DHT22;32017;43.700;11.820;2023-08-01T09:32:14;25.50;97.60
46283;DHT22;32017;43.700;11.820;2023-08-01T09:34:33;25.80;98.10
46283;DHT22;32017;43.700;11.820;2023-08-01T09:36:58;26.00;97.70
46283;DHT22;32017;43.700;11.820;2023-08-01T09:39:20;26.00;97.80
46283;DHT22;32017;43.700;11.820;2023-08-01T09:41:40;25.90;98.10
46283;DHT22;32017;43.700;11.820;2023-08-01T09:44:00;25.60;98.50
46283;DHT22;32017;43.700;11.820;2023-08-01T09:46:20;25.50;98.20
46283;DHT22;32017;43.700;11.820;2023-08-01T09:48:40;25.30;98.70
46283;DHT22;32017;43.700;11.820;2023-08-01T09:51:14;25.40;99.40
46283;DHT22;32017;43.700;11.820;2023-08-01T09:53:36;25.70;99.20
46283;DHT22;32017;43.700;11.820;2023-08-01T09:56:06;26.10;99.00
46283;DHT22;32017;43.700;11.820;2023-08-01T09:58:31;26.70;98.60
46283;DHT22;32017;43.700;11.820;2023-08-01T10:00:51;26.80;98.20
46283;DHT22;32017;43.700;11.820;2023-08-01T10:03:12;26.70;97.80
46283;DHT22;32017;43.700;11.820;2023-08-01T10:05:34;26.70;97.80
46283;DHT22;32017;43.700;11.820;2023-08-01T10:07:57;26.80;97.20
46283;DHT22;32017;43.700;11.820;2023-08-01T10:10:18;27.20;97.00
46283;DHT22;32017;43.700;11.820;2023-08-01T10:12:39;27.80;96.30
46283;DHT22;32017;43.700;11.820;2023-08-01T10:15:04;28.20;95.40
46283;DHT22;32017;43.700;11.820;2023-08-01T10:17:25;28.70;95.00
46283;DHT22;32017;43.700;11.820;2023-08-01T10:19:47;28.30;95.00
46283;DHT22;32017;43.700;11.820;2023-08-01T10:22:08;27.60;94.50
46283;DHT22;32017;43.700;11.820;2023-08-01T10:24:29;27.10;94.80
46283;DHT22;32017;43.700;11.820;2023-08-01T10:26:50;27.40;95.50
46283;DHT22;32017;43.700;11.820;2023-08-01T10:29:09;28.00;95.00
46283;DHT22;32017;43.700;11.820;2023-08-01T10:31:29;28.50;94.80
46283;DHT22;32017;43.700;11.820;2023-08-01T10:33:50;28.60;94.00
46283;DHT22;32017;43.700;11.820;2023-08-01T10:36:21;28.30;93.50
46283;DHT22;32017;43.700;11.820;2023-08-01T10:38:48;28.40;93.90
46283;DHT22;32017;43.700;11.820;2023-08-01T10:41:22;28.90;92.80
46283;DHT22;32017;43.700;11.820;2023-08-01T10:43:42;29.00;92.60
46283;DHT22;32017;43.700;11.820;2023-08-01T10:46:04;28.90;93.70
46283;DHT22;32017;43.700;11.820;2023-08-01T10:48:24;28.70;93.10
46283;DHT22;32017;43.700;11.820;2023-08-01T10:50:56;29.10;93.50
46283;DHT22;32017;43.700;11.820;2023-08-01T10:53:17;29.60;93.10
46283;DHT22;32017;43.700;11.820;2023-08-01T10:55:45;29.80;91.60
46283;DHT22;32017;43.700;11.820;2023-08-01T10:58:06;29.90;91.20
46283;DHT22;32017;43.700;11.820;2023-08-01T11:00:26;30.00;89.90
46283;DHT22;32017;43.700;11.820;2023-08-01T11:02:50;30.10;90.00
46283;DHT22;32017;43.700;11.820;2023-08-01T11:05:13;30.40;89.70
46283;DHT22;32017;43.700;11.820;2023-08-01T11:07:34;30.90;84.60
46283;DHT22;32017;43.700;11.820;2023-08-01T11:10:10;31.00;83.60
46283;DHT22;32017;43.700;11.820;2023-08-01T11:12:33;31.70;84.70
46283;DHT22;32017;43.700;11.820;2023-08-01T11:15:02;31.90;83.10
46283;DHT22;32017;43.700;11.820;2023-08-01T11:17:22;32.10;83.00
46283;DHT22;32017;43.700;11.820;2023-08-01T11:19:43;31.90;83.20
46283;DHT22;32017;43.700;11.820;2023-08-01T11:22:09;31.90;83.40
46283;DHT22;32017;43.700;11.820;2023-08-01T11:24:29;31.70;81.80
46283;DHT22;32017;43.700;11.820;2023-08-01T11:26:50;31.50;83.60
46283;DHT22;32017;43.700;11.820;2023-08-01T11:29:10;31.60;83.60
46283;DHT22;32017;43.700;11.820;2023-08-01T11:31:31;31.90;82.30
46283;DHT22;32017;43.700;11.820;2023-08-01T11:33:58;31.50;83.30
46283;DHT22;32017;43.700;11.820;2023-08-01T11:36:18;31.80;83.30
46283;DHT22;32017;43.700;11.820;2023-08-01T11:38:38;31.10;80.80
46283;DHT22;32017;43.700;11.820;2023-08-01T11:41:00;31.10;83.90
46283;DHT22;32017;43.700;11.820;2023-08-01T11:43:20;30.40;83.50
46283;DHT22;32017;43.700;11.820;2023-08-01T11:45:50;30.50;82.80
46283;DHT22;32017;43.700;11.820;2023-08-01T11:48:13;29.90;83.60
46283;DHT22;32017;43.700;11.820;2023-08-01T11:50:33;29.70;84.00
46283;DHT22;32017;43.700;11.820;2023-08-01T11:52:53;30.00;84.00
46283;DHT22;32017;43.700;11.820;2023-08-01T11:55:27;29.80;84.50
46283;DHT22;32017;43.700;11.820;2023-08-01T11:57:54;29.50;85.40
46283;DHT22;32017;43.700;11.820;2023-08-01T12:00:21;29.80;85.70
46283;DHT22;32017;43.700;11.820;2023-08-01T12:02:41;30.30;87.20
46283;DHT22;32017;43.700;11.820;2023-08-01T12:05:01;30.30;86.40
46283;DHT22;32017;43.700;11.820;2023-08-01T12:07:24;30.30;88.20
46283;DHT22;32017;43.700;11.820;2023-08-01T12:09:54;30.40;87.60
46283;DHT22;32017;43.700;11.820;2023-08-01T12:12:15;30.30;85.10
46283;DHT22;32017;43.700;11.820;2023-08-01T12:14:42;30.20;85.80
46283;DHT22;32017;43.700;11.820;2023-08-01T12:17:02;30.30;85.40
46283;DHT22;32017;43.700;11.820;2023-08-01T12:19:22;30.00;83.70
46283;DHT22;32017;43.700;11.820;2023-08-01T12:21:42;29.60;84.20
46283;DHT22;32017;43.700;11.820;2023-08-01T12:24:02;30.40;86.90
46283;DHT22;32017;43.700;11.820;2023-08-01T12:26:23;31.10;83.20
46283;DHT22;32017;43.700;11.820;2023-08-01T12:28:43;31.00;83.40
46283;DHT22;32017;43.700;11.820;2023-08-01T12:31:03;31.60;81.10
46283;DHT22;32017;43.700;11.820;2023-08-01T12:33:24;31.60;79.30
46283;DHT22;32017;43.700;11.820;2023-08-01T12:35:47;31.30;80.50
46283;DHT22;32017;43.700;11.820;2023-08-01T12:38:08;31.00;79.70
46283;DHT22;32017;43.700;11.820;2023-08-01T12:40:29;30.10;78.50
46283;DHT22;32017;43.700;11.820;2023-08-01T12:42:49;29.90;80.90
46283;DHT22;32017;43.700;11.820;2023-08-01T12:45:09;30.30;82.10
46283;DHT22;32017;43.700;11.820;2023-08-01T12:47:29;29.90;81.10
46283;DHT22;32017;43.700;11.820;2023-08-01T12:49:49;30.60;81.80
46283;DHT22;32017;43.700;11.820;2023-08-01T12:52:09;31.00;79.30
46283;DHT22;32017;43.700;11.820;2023-08-01T12:54:30;31.10;80.60
46283;DHT22;32017;43.700;11.820;2023-08-01T12:56:50;31.30;80.20
46283;DHT22;32017;43.700;11.820;2023-08-01T12:59:09;31.70;82.50
46283;DHT22;32017;43.700;11.820;2023-08-01T13:01:29;31.60;78.40
46283;DHT22;32017;43.700;11.820;2023-08-01T13:03:50;31.70;79.20
46283;DHT22;32017;43.700;11.820;2023-08-01T13:06:11;31.60;79.20
46283;DHT22;32017;43.700;11.820;2023-08-01T13:08:32;31.70;79.80
46283;DHT22;32017;43.700;11.820;2023-08-01T13:10:52;31.50;77.90
46283;DHT22;32017;43.700;11.820;2023-08-01T13:13:12;31.40;79.50
46283;DHT22;32017;43.700;11.820;2023-08-01T13:15:32;31.90;79.20
46283;DHT22;32017;43.700;11.820;2023-08-01T13:17:53;32.30;79.60
46283;DHT22;32017;43.700;11.820;2023-08-01T13:20:19;32.50;76.70
46283;DHT22;32017;43.700;11.820;2023-08-01T13:22:40;31.60;76.00
46283;DHT22;32017;43.700;11.820;2023-08-01T13:24:59;31.60;78.60
46283;DHT22;32017;43.700;11.820;2023-08-01T13:27:19;31.70;79.70
46283;DHT22;32017;43.700;11.820;2023-08-01T13:29:39;31.80;78.00
46283;DHT22;32017;43.700;11.820;2023-08-01T13:31:59;32.30;78.30
46283;DHT22;32017;43.700;11.820;2023-08-01T13:34:18;32.30;79.70
46283;DHT22;32017;43.700;11.820;2023-08-01T13:36:38;32.20;76.10
46283;DHT22;32017;43.700;11.820;2023-08-01T13:38:59;32.30;80.30
46283;DHT22;32017;43.700;11.820;2023-08-01T13:41:19;32.90;77.60
46283;DHT22;32017;43.700;11.820;2023-08-01T13:43:39;33.40;77.80
46283;DHT22;32017;43.700;11.820;2023-08-01T13:45:58;33.70;79.20
46283;DHT22;32017;43.700;11.820;2023-08-01T13:48:19;33.80;75.10
46283;DHT22;32017;43.700;11.820;2023-08-01T13:50:39;33.50;75.70
46283;DHT22;32017;43.700;11.820;2023-08-01T13:52:59;33.50;73.80
46283;DHT22;32017;43.700;11.820;2023-08-01T13:55:19;32.80;73.00
46283;DHT22;32017;43.700;11.820;2023-08-01T13:57:39;32.10;72.20
46283;DHT22;32017;43.700;11.820;2023-08-01T13:59:59;32.50;73.80
46283;DHT22;32017;43.700;11.820;2023-08-01T14:02:33;33.00;75.00
46283;DHT22;32017;43.700;11.820;2023-08-01T14:04:53;32.60;70.00
46283;DHT22;32017;43.700;11.820;2023-08-01T14:07:15;32.80;71.20
46283;DHT22;32017;43.700;11.820;2023-08-01T14:09:35;32.70;72.60
46283;DHT22;32017;43.700;11.820;2023-08-01T14:11:55;32.50;72.00
46283;DHT22;32017;43.700;11.820;2023-08-01T14:14:15;32.60;68.40
46283;DHT22;32017;43.700;11.820;2023-08-01T14:16:37;32.60;68.50
46283;DHT22;32017;43.700;11.820;2023-08-01T14:18:58;32.30;67.30
46283;DHT22;32017;43.700;11.820;2023-08-01T14:21:18;31.90;68.70
46283;DHT22;32017;43.700;11.820;2023-08-01T14:23:38;31.70;70.40
46283;DHT22;32017;43.700;11.820;2023-08-01T14:25:58;31.50;70.60
46283;DHT22;32017;43.700;11.820;2023-08-01T14:28:19;30.80;70.90
46283;DHT22;32017;43.700;11.820;2023-08-01T14:30:39;30.70;71.10
46283;DHT22;32017;43.700;11.820;2023-08-01T14:33:04;30.70;72.10
46283;DHT22;32017;43.700;11.820;2023-08-01T14:35:25;30.80;72.40